createdAt,value
2023-05-04T00:00:10.001Z,24.59
2023-05-04T00:01:09.919Z,24.57
2023-05-04T00:02:09.943Z,24.61
2023-05-04T00:03:09.992Z,24.61
2023-05-04T00:04:10.100Z,24.60
2023-05-04T00:05:09.963Z,24.61
2023-05-04T00:06:09.961Z,24.59
2023-05-04T00:07:09.973Z,24.57
2023-05-04T00:08:09.977Z,24.59
2023-05-04T00:09:09.967Z,24.59
2023-05-04T00:10:09.942Z,24.56
2023-05-04T00:11:10.128Z,24.56
2023-05-04T00:12:09.944Z,24.57
2023-05-04T00:13:10.130Z,24.59
2023-05-04T00:14:09.948Z,24.57
2023-05-04T00:15:09.937Z,24.54
2023-05-04T00:16:11.073Z,24.57
2023-05-04T00:17:09.934Z,24.56
2023-05-04T00:18:09.957Z,24.57
2023-05-04T00:19:09.972Z,24.57
2023-05-04T00:20:09.906Z,24.56
2023-05-04T00:21:11.637Z,24.56
2023-05-04T00:22:09.987Z,24.53
2023-05-04T00:23:09.918Z,24.54
2023-05-04T00:24:11.638Z,24.53
2023-05-04T00:25:09.937Z,24.53
2023-05-04T00:26:10.184Z,24.53
2023-05-04T00:27:09.977Z,24.53
2023-05-04T00:28:10.023Z,24.51
2023-05-04T00:29:10.000Z,24.53
2023-05-04T00:30:10.031Z,24.51
2023-05-04T00:31:10.173Z,24.51
2023-05-04T00:32:09.991Z,24.51
2023-05-04T00:33:10.021Z,24.51
2023-05-04T00:34:09.997Z,24.49
2023-05-04T00:35:09.995Z,24.53
2023-05-04T00:36:10.021Z,24.51
2023-05-04T00:37:09.997Z,24.51
2023-05-04T00:38:10.015Z,24.49
2023-05-04T00:39:10.055Z,24.49
2023-05-04T00:40:10.068Z,24.49
2023-05-04T00:41:10.036Z,24.47
2023-05-04T00:42:10.063Z,24.49
2023-05-04T00:43:10.167Z,24.49
2023-05-04T00:44:10.081Z,24.46
2023-05-04T00:45:10.070Z,24.47
2023-05-04T00:46:10.078Z,24.47
2023-05-04T00:47:10.190Z,24.47
2023-05-04T00:48:10.117Z,24.49
2023-05-04T00:49:10.125Z,24.47
2023-05-04T00:50:10.104Z,24.47
2023-05-04T00:51:10.072Z,24.47
2023-05-04T00:52:10.089Z,24.46
2023-05-04T00:53:10.096Z,24.44
2023-05-04T00:54:10.099Z,24.46
2023-05-04T00:55:10.105Z,24.44
2023-05-04T00:56:10.112Z,24.46
2023-05-04T00:57:10.107Z,24.47
2023-05-04T00:58:10.129Z,24.44
2023-05-04T00:59:10.091Z,24.43
2023-05-04T01:00:10.093Z,24.43
2023-05-04T01:01:10.215Z,24.41
2023-05-04T01:02:10.661Z,24.44
2023-05-04T01:03:10.360Z,24.43
2023-05-04T01:04:10.334Z,24.41
2023-05-04T01:05:10.174Z,24.43
2023-05-04T01:06:10.211Z,24.43
2023-05-04T01:07:10.223Z,24.41
2023-05-04T01:08:10.264Z,24.40
2023-05-04T01:09:10.241Z,24.43
2023-05-04T01:10:10.249Z,24.41
2023-05-04T01:11:10.214Z,24.40
2023-05-04T01:12:10.232Z,24.43
2023-05-04T01:13:10.369Z,24.41
2023-05-04T01:14:10.279Z,24.39
2023-05-04T01:15:10.271Z,24.41
2023-05-04T01:16:10.307Z,24.41
2023-05-04T01:17:10.326Z,24.39
2023-05-04T01:18:10.399Z,24.40
2023-05-04T01:19:10.300Z,24.40
2023-05-04T01:20:10.332Z,24.37
2023-05-04T01:21:10.314Z,24.40
2023-05-04T01:22:10.318Z,24.40
2023-05-04T01:23:10.340Z,24.36
2023-05-04T01:24:10.341Z,24.37
2023-05-04T01:25:10.369Z,24.39
2023-05-04T01:26:10.386Z,24.39
2023-05-04T01:27:10.432Z,24.37
2023-05-04T01:28:10.448Z,24.37
2023-05-04T01:29:10.405Z,24.37
2023-05-04T01:30:10.386Z,24.36
2023-05-04T01:31:10.442Z,24.36
2023-05-04T01:32:10.469Z,24.37
2023-05-04T01:33:10.496Z,24.36
2023-05-04T01:34:10.432Z,24.34
2023-05-04T01:35:10.454Z,24.36
2023-05-04T01:36:10.466Z,24.34
2023-05-04T01:37:10.465Z,24.34
2023-05-04T01:38:10.469Z,24.33
2023-05-04T01:39:10.526Z,24.36
2023-05-04T01:40:10.531Z,24.36
2023-05-04T01:41:10.508Z,24.34
2023-05-04T01:42:10.677Z,24.36
2023-05-04T01:43:10.547Z,24.32
2023-05-04T01:44:10.600Z,24.34
2023-05-04T01:45:10.583Z,24.33
2023-05-04T01:46:10.649Z,24.32
2023-05-04T01:47:10.589Z,24.32
2023-05-04T01:48:10.622Z,24.32
2023-05-04T01:49:10.658Z,24.30
2023-05-04T01:50:10.656Z,24.30
2023-05-04T01:51:10.659Z,24.34
2023-05-04T01:52:10.668Z,24.30
2023-05-04T01:53:10.690Z,24.30
2023-05-04T01:54:10.730Z,24.30
2023-05-04T01:55:10.734Z,24.30
2023-05-04T01:56:10.728Z,24.33
2023-05-04T01:57:10.778Z,24.32
2023-05-04T01:58:10.785Z,24.33
2023-05-04T01:59:10.777Z,24.30
2023-05-04T02:00:10.814Z,24.29
2023-05-04T02:01:10.907Z,24.30
2023-05-04T02:02:10.871Z,24.29
2023-05-04T02:03:10.903Z,24.27
2023-05-04T02:04:11.095Z,24.29
2023-05-04T02:05:10.919Z,24.29
2023-05-04T02:06:10.935Z,24.26
2023-05-04T02:07:10.940Z,24.29
2023-05-04T02:08:10.988Z,24.27
2023-05-04T02:09:11.001Z,24.26
2023-05-04T02:10:11.026Z,24.27
2023-05-04T02:11:11.049Z,24.27
2023-05-04T02:12:11.114Z,24.26
2023-05-04T02:13:11.129Z,24.26
2023-05-04T02:14:11.131Z,24.26
2023-05-04T02:15:11.188Z,24.26
2023-05-04T02:16:11.189Z,24.23
2023-05-04T02:17:11.208Z,24.24
2023-05-04T02:18:11.323Z,24.26
2023-05-04T02:19:11.254Z,24.23
2023-05-04T02:20:11.287Z,24.26
2023-05-04T02:21:11.303Z,24.24
2023-05-04T02:22:11.314Z,24.26
2023-05-04T02:23:11.345Z,24.22
2023-05-04T02:24:11.361Z,24.24
2023-05-04T02:25:11.364Z,24.23
2023-05-04T02:26:11.418Z,24.24
2023-05-04T02:27:11.689Z,24.23
2023-05-04T02:28:11.479Z,24.23
2023-05-04T02:29:11.487Z,24.22
2023-05-04T02:30:11.530Z,24.22
2023-05-04T02:31:11.600Z,24.20
2023-05-04T02:32:11.658Z,24.22
2023-05-04T02:33:11.626Z,24.20
2023-05-04T02:34:11.609Z,24.22
2023-05-04T02:35:11.863Z,24.23
2023-05-04T02:36:11.688Z,24.20
2023-05-04T02:37:12.209Z,24.20
2023-05-04T02:38:11.752Z,24.22
2023-05-04T02:39:11.773Z,24.17
2023-05-04T02:40:11.766Z,24.20
2023-05-04T02:41:11.810Z,24.19
2023-05-04T02:42:11.799Z,24.20
2023-05-04T02:43:11.829Z,24.19
2023-05-04T02:44:11.863Z,24.19
2023-05-04T02:45:11.909Z,24.19
2023-05-04T02:46:11.959Z,24.17
2023-05-04T02:47:12.233Z,24.19
2023-05-04T02:48:11.959Z,24.17
2023-05-04T02:49:11.954Z,24.17
2023-05-04T02:50:12.007Z,24.15
2023-05-04T02:51:12.056Z,24.19
2023-05-04T02:52:12.069Z,24.17
2023-05-04T02:53:12.058Z,24.17
2023-05-04T02:54:12.132Z,24.16
2023-05-04T02:55:12.156Z,24.17
2023-05-04T02:56:12.135Z,24.17
2023-05-04T02:57:12.208Z,24.17
2023-05-04T02:58:12.207Z,24.16
2023-05-04T02:59:12.284Z,24.15
2023-05-04T03:00:12.233Z,24.16
2023-05-04T03:01:12.344Z,24.16
2023-05-04T03:02:12.704Z,24.16
2023-05-04T03:03:12.323Z,24.16
2023-05-04T03:04:12.418Z,24.13
2023-05-04T03:05:12.390Z,24.15
2023-05-04T03:06:12.458Z,24.13
2023-05-04T03:07:12.470Z,24.12
2023-05-04T03:08:12.482Z,24.10
2023-05-04T03:09:12.507Z,24.16
2023-05-04T03:10:12.515Z,24.12
2023-05-04T03:11:12.553Z,24.12
2023-05-04T03:12:12.644Z,24.13
2023-05-04T03:13:12.737Z,24.12
2023-05-04T03:14:12.653Z,24.13
2023-05-04T03:15:12.716Z,24.13
2023-05-04T03:16:12.762Z,24.13
2023-05-04T03:17:12.810Z,24.12
2023-05-04T03:18:12.886Z,24.10
2023-05-04T03:19:12.822Z,24.12
2023-05-04T03:20:12.873Z,24.12
2023-05-04T03:21:12.881Z,24.12
2023-05-04T03:22:13.224Z,24.10
2023-05-04T03:23:12.953Z,24.10
2023-05-04T03:24:12.992Z,24.10
2023-05-04T03:25:12.990Z,24.10
2023-05-04T03:26:13.041Z,24.09
2023-05-04T03:27:13.076Z,24.10
2023-05-04T03:28:13.108Z,24.09
2023-05-04T03:29:13.128Z,24.09
2023-05-04T03:30:13.135Z,24.10
2023-05-04T03:31:13.180Z,24.09
2023-05-04T03:32:13.494Z,24.10
2023-05-04T03:33:13.258Z,24.09
2023-05-04T03:34:13.314Z,24.09
2023-05-04T03:35:13.316Z,24.06
2023-05-04T03:36:13.322Z,24.08
2023-05-04T03:37:13.687Z,24.06
2023-05-04T03:38:13.394Z,24.09
2023-05-04T03:39:13.460Z,24.08
2023-05-04T03:40:13.491Z,24.05
2023-05-04T03:41:13.524Z,24.06
2023-05-04T03:42:13.538Z,24.06
2023-05-04T03:43:13.574Z,24.06
2023-05-04T03:44:13.617Z,24.09
2023-05-04T03:45:13.621Z,24.09
2023-05-04T03:46:13.675Z,24.05
2023-05-04T03:47:13.732Z,24.06
2023-05-04T03:48:13.782Z,24.05
2023-05-04T03:49:13.807Z,24.06
2023-05-04T03:50:13.808Z,24.06
2023-05-04T03:51:13.874Z,24.05
2023-05-04T03:52:14.209Z,24.05
2023-05-04T03:53:13.955Z,24.05
2023-05-04T03:54:14.016Z,24.05
2023-05-04T03:55:14.079Z,24.05
2023-05-04T03:56:14.101Z,24.06
2023-05-04T03:57:14.199Z,24.05
2023-05-04T03:58:14.171Z,24.03
2023-05-04T03:59:14.189Z,24.01
2023-05-04T04:00:14.226Z,24.01
2023-05-04T04:01:14.271Z,24.01
2023-05-04T04:02:14.754Z,24.02
2023-05-04T04:03:14.477Z,24.02
2023-05-04T04:04:14.430Z,24.01
2023-05-04T04:05:14.410Z,24.01
2023-05-04T04:06:14.459Z,23.99
2023-05-04T04:07:14.522Z,24.02
2023-05-04T04:08:14.545Z,24.03
2023-05-04T04:09:14.580Z,24.01
2023-05-04T04:10:14.649Z,24.01
2023-05-04T04:11:14.718Z,24.01
2023-05-04T04:12:15.260Z,24.02
2023-05-04T04:13:14.880Z,24.01
2023-05-04T04:14:14.802Z,24.01
2023-05-04T04:15:14.884Z,24.02
2023-05-04T04:16:14.928Z,23.99
2023-05-04T04:17:15.217Z,24.01
2023-05-04T04:18:15.012Z,23.98
2023-05-04T04:19:15.017Z,24.01
2023-05-04T04:20:15.087Z,23.98
2023-05-04T04:21:15.131Z,23.99
2023-05-04T04:22:15.176Z,23.99
2023-05-04T04:23:15.192Z,23.98
2023-05-04T04:24:15.267Z,23.98
2023-05-04T04:25:15.292Z,23.98
2023-05-04T04:26:15.350Z,23.98
2023-05-04T04:27:15.790Z,23.98
2023-05-04T04:28:15.395Z,23.96
2023-05-04T04:29:15.449Z,23.98
2023-05-04T04:30:15.466Z,23.96
2023-05-04T04:31:15.554Z,23.95
2023-05-04T04:32:15.732Z,23.96
2023-05-04T04:33:15.631Z,23.98
2023-05-04T04:34:15.670Z,23.95
2023-05-04T04:35:15.698Z,23.98
2023-05-04T04:36:15.750Z,23.95
2023-05-04T04:37:15.767Z,23.95
2023-05-04T04:38:15.823Z,23.98
2023-05-04T04:39:15.895Z,23.95
2023-05-04T04:40:15.916Z,23.93
2023-05-04T04:41:15.952Z,23.96
2023-05-04T04:42:16.247Z,23.96
2023-05-04T04:43:16.075Z,23.96
2023-05-04T04:44:16.141Z,23.92
2023-05-04T04:45:16.167Z,23.95
2023-05-04T04:46:16.239Z,23.93
2023-05-04T04:47:16.260Z,23.96
2023-05-04T04:48:16.291Z,23.93
2023-05-04T04:49:16.360Z,23.93
2023-05-04T04:50:16.402Z,23.95
2023-05-04T04:51:16.420Z,23.93
2023-05-04T04:52:16.474Z,23.95
2023-05-04T04:53:16.525Z,23.82
2023-05-04T04:54:16.622Z,23.81
2023-05-04T04:55:16.672Z,23.85
2023-05-04T04:56:16.701Z,23.85
2023-05-04T04:57:16.760Z,23.86
2023-05-04T04:58:16.791Z,23.86
2023-05-04T04:59:16.877Z,23.85
2023-05-04T05:00:16.898Z,23.85
2023-05-04T05:01:17.001Z,23.82
2023-05-04T05:02:17.022Z,23.79
2023-05-04T05:03:17.069Z,23.79
2023-05-04T05:04:17.155Z,23.81
2023-05-04T05:05:17.270Z,23.81
2023-05-04T05:06:17.186Z,23.79
2023-05-04T05:07:17.744Z,23.81
2023-05-04T05:08:17.301Z,23.82
2023-05-04T05:09:17.375Z,23.82
2023-05-04T05:10:17.448Z,23.83
2023-05-04T05:11:17.451Z,23.82
2023-05-04T05:12:17.740Z,23.85
2023-05-04T05:13:17.608Z,23.83
2023-05-04T05:14:17.628Z,23.85
2023-05-04T05:15:17.712Z,23.82
2023-05-04T05:16:17.759Z,23.83
2023-05-04T05:17:18.250Z,23.82
2023-05-04T05:18:17.863Z,23.83
2023-05-04T05:19:17.921Z,23.86
2023-05-04T05:20:17.952Z,23.86
2023-05-04T05:21:18.013Z,23.83
2023-05-04T05:22:18.074Z,23.86
2023-05-04T05:23:18.096Z,23.85
2023-05-04T05:24:18.169Z,23.85
2023-05-04T05:25:18.242Z,23.85
2023-05-04T05:26:18.290Z,23.83
2023-05-04T05:27:18.744Z,23.85
2023-05-04T05:28:18.369Z,23.83
2023-05-04T05:29:18.401Z,23.86
2023-05-04T05:30:18.507Z,23.85
2023-05-04T05:31:18.564Z,23.82
2023-05-04T05:32:18.727Z,23.81
2023-05-04T05:33:18.696Z,23.85
2023-05-04T05:34:18.727Z,23.81
2023-05-04T05:35:18.788Z,23.79
2023-05-04T05:36:18.858Z,23.82
2023-05-04T05:37:18.907Z,23.79
2023-05-04T05:38:18.965Z,23.78
2023-05-04T05:39:19.026Z,23.78
2023-05-04T05:40:19.069Z,23.79
2023-05-04T05:41:19.116Z,23.79
2023-05-04T05:42:19.286Z,23.79
2023-05-04T05:43:19.228Z,23.79
2023-05-04T05:44:19.346Z,23.76
2023-05-04T05:45:19.346Z,23.78
2023-05-04T05:46:19.432Z,23.78
2023-05-04T05:47:19.861Z,23.76
2023-05-04T05:48:19.563Z,23.76
2023-05-04T05:49:19.577Z,23.79
2023-05-04T05:50:19.785Z,23.82
2023-05-04T05:51:19.716Z,23.83
2023-05-04T05:52:19.823Z,23.89
2023-05-04T05:53:19.831Z,23.91
2023-05-04T05:54:19.888Z,23.95
2023-05-04T05:55:19.942Z,23.98
2023-05-04T05:56:19.997Z,24.01
2023-05-04T05:57:20.031Z,24.01
2023-05-04T05:58:20.045Z,24.03
2023-05-04T05:59:20.106Z,24.06
2023-05-04T06:00:20.131Z,24.09
2023-05-04T06:01:20.134Z,24.12
2023-05-04T06:02:20.411Z,24.17
2023-05-04T06:03:20.391Z,24.19
2023-05-04T06:04:20.287Z,24.22
2023-05-04T06:05:20.298Z,24.24
2023-05-04T06:06:20.336Z,24.24
2023-05-04T06:07:20.826Z,24.30
2023-05-04T06:08:20.374Z,24.32
2023-05-04T06:09:20.361Z,24.33
2023-05-04T06:10:20.362Z,24.34
2023-05-04T06:11:20.397Z,24.39
2023-05-04T06:12:20.417Z,24.40
2023-05-04T06:13:20.499Z,24.43
2023-05-04T06:14:20.440Z,24.44
2023-05-04T06:15:20.441Z,24.44
2023-05-04T06:16:20.473Z,24.47
2023-05-04T06:17:20.457Z,24.47
2023-05-04T06:18:20.493Z,24.51
2023-05-04T06:19:20.506Z,24.54
2023-05-04T06:20:20.463Z,24.54
2023-05-04T06:21:20.478Z,24.54
2023-05-04T06:22:20.469Z,24.56
2023-05-04T06:23:20.789Z,24.57
2023-05-04T06:24:20.453Z,24.59
2023-05-04T06:25:20.440Z,24.63
2023-05-04T06:26:20.468Z,24.61
2023-05-04T06:27:22.209Z,24.63
2023-05-04T06:28:20.773Z,24.67
2023-05-04T06:29:20.441Z,24.68
2023-05-04T06:30:20.454Z,24.67
2023-05-04T06:31:20.469Z,24.70
2023-05-04T06:32:20.513Z,24.74
2023-05-04T06:33:20.477Z,24.72
2023-05-04T06:34:20.450Z,24.77
2023-05-04T06:35:20.433Z,24.78
2023-05-04T06:36:20.492Z,24.78
2023-05-04T06:37:20.562Z,24.80
2023-05-04T06:38:20.757Z,24.84
2023-05-04T06:39:20.686Z,24.84
2023-05-04T06:40:20.763Z,24.85
2023-05-04T06:41:20.834Z,24.87
2023-05-04T06:42:20.873Z,24.91
2023-05-04T06:43:21.282Z,24.91
2023-05-04T06:44:20.974Z,24.91
2023-05-04T06:45:21.070Z,24.97
2023-05-04T06:46:21.316Z,24.95
2023-05-04T06:47:21.167Z,24.98
2023-05-04T06:48:21.285Z,24.98
2023-05-04T06:49:21.266Z,24.98
2023-05-04T06:50:21.354Z,25.01
2023-05-04T06:51:21.392Z,24.99
2023-05-04T06:52:21.441Z,25.04
2023-05-04T06:53:21.800Z,25.04
2023-05-04T06:54:21.559Z,25.05
2023-05-04T06:55:21.614Z,25.07
2023-05-04T06:56:21.648Z,25.07
2023-05-04T06:57:21.717Z,25.05
2023-05-04T06:58:21.816Z,25.08
2023-05-04T06:59:21.773Z,25.09
2023-05-04T07:00:21.821Z,25.12
2023-05-04T07:01:21.972Z,25.15
2023-05-04T07:02:21.901Z,25.12
2023-05-04T07:03:23.048Z,25.15
2023-05-04T07:04:21.877Z,25.15
2023-05-04T07:05:21.855Z,25.18
2023-05-04T07:06:21.868Z,25.19
2023-05-04T07:07:21.973Z,25.21
2023-05-04T07:08:21.848Z,25.22
2023-05-04T07:09:21.853Z,25.22
2023-05-04T07:10:21.821Z,25.22
2023-05-04T07:11:21.843Z,25.25
2023-05-04T07:12:21.851Z,25.25
2023-05-04T07:13:21.820Z,25.28
2023-05-04T07:14:21.804Z,25.28
2023-05-04T07:15:21.789Z,25.28
2023-05-04T07:16:21.864Z,25.29
2023-05-04T07:17:21.972Z,25.32
2023-05-04T07:18:22.309Z,25.29
2023-05-04T07:19:21.980Z,25.33
2023-05-04T07:20:25.061Z,25.38
2023-05-04T07:21:28.124Z,25.40
2023-05-04T07:22:23.100Z,25.42
2023-05-04T07:23:22.351Z,25.43
2023-05-04T07:24:21.926Z,25.43
2023-05-04T07:25:21.925Z,25.43
2023-05-04T07:26:21.941Z,25.48
2023-05-04T07:27:21.940Z,25.49
2023-05-04T07:28:22.334Z,25.46
2023-05-04T07:29:21.920Z,25.46
2023-05-04T07:30:21.911Z,25.46
2023-05-04T07:31:21.903Z,25.48
2023-05-04T07:32:22.027Z,25.49
2023-05-04T07:33:21.906Z,25.48
2023-05-04T07:34:25.296Z,25.46
2023-05-04T07:35:22.860Z,25.48
2023-05-04T07:36:21.886Z,25.43
2023-05-04T07:37:21.886Z,25.48
2023-05-04T07:38:21.845Z,25.48
2023-05-04T07:39:21.932Z,25.49
2023-05-04T07:40:21.806Z,25.50
2023-05-04T07:41:21.824Z,25.50
2023-05-04T07:42:21.852Z,25.50
2023-05-04T07:43:22.565Z,25.52
2023-05-04T07:44:21.793Z,25.54
2023-05-04T07:45:21.808Z,25.53
2023-05-04T07:46:21.866Z,25.50
2023-05-04T07:47:22.471Z,25.56
2023-05-04T07:48:23.438Z,25.59
2023-05-04T07:49:21.782Z,25.59
2023-05-04T07:50:21.755Z,25.60
2023-05-04T07:51:21.802Z,25.60
2023-05-04T07:52:21.738Z,25.60
2023-05-04T07:53:21.817Z,25.63
2023-05-04T07:54:22.908Z,25.60
2023-05-04T07:55:21.927Z,25.65
2023-05-04T07:56:21.704Z,25.66
2023-05-04T07:57:21.707Z,25.65
2023-05-04T07:58:21.829Z,25.66
2023-05-04T07:59:21.725Z,25.65
2023-05-04T08:00:21.705Z,25.63
2023-05-04T08:01:21.655Z,25.66
2023-05-04T08:02:21.818Z,25.66
2023-05-04T08:03:22.393Z,25.63
2023-05-04T08:04:21.663Z,25.57
2023-05-04T08:05:21.654Z,25.59
2023-05-04T08:06:21.626Z,25.60
2023-05-04T08:07:21.651Z,25.56
2023-05-04T08:08:21.904Z,25.59
2023-05-04T08:09:21.632Z,25.53
2023-05-04T08:10:21.597Z,25.57
2023-05-04T08:11:21.637Z,25.60
2023-05-04T08:12:21.605Z,25.62
2023-05-04T08:13:21.867Z,25.60
2023-05-04T08:14:21.597Z,25.63
2023-05-04T08:15:21.564Z,25.60
2023-05-04T08:16:21.582Z,25.66
2023-05-04T08:17:21.586Z,25.65
2023-05-04T08:18:21.823Z,25.69
2023-05-04T08:19:21.515Z,25.69
2023-05-04T08:20:23.528Z,25.72
2023-05-04T08:21:21.542Z,25.77
2023-05-04T08:22:21.562Z,25.75
2023-05-04T08:23:21.846Z,25.79
2023-05-04T08:24:21.618Z,25.77
2023-05-04T08:25:21.640Z,25.80
2023-05-04T08:26:21.651Z,25.81
2023-05-04T08:27:21.641Z,25.86
2023-05-04T08:28:21.852Z,25.87
2023-05-04T08:29:21.702Z,25.91
2023-05-04T08:30:21.741Z,25.90
2023-05-04T08:31:21.797Z,25.93
2023-05-04T08:32:21.792Z,25.93
2023-05-04T08:33:21.764Z,25.94
2023-05-04T08:34:21.809Z,25.96
2023-05-04T08:35:21.815Z,25.97
2023-05-04T08:36:21.818Z,25.96
2023-05-04T08:37:21.824Z,25.94
2023-05-04T08:38:22.391Z,25.97
2023-05-04T08:39:21.896Z,25.94
2023-05-04T08:40:21.917Z,25.97
2023-05-04T08:41:21.926Z,25.94
2023-05-04T08:42:21.944Z,25.94
2023-05-04T08:43:21.989Z,25.93
2023-05-04T08:44:21.917Z,25.93
2023-05-04T08:45:21.955Z,25.94
2023-05-04T08:46:21.988Z,25.94
2023-05-04T08:47:22.182Z,25.93
2023-05-04T08:48:22.024Z,25.93
2023-05-04T08:49:22.025Z,25.93
2023-05-04T08:50:22.035Z,25.94
2023-05-04T08:51:22.074Z,25.91
2023-05-04T08:52:22.139Z,25.90
2023-05-04T08:53:22.089Z,25.87
2023-05-04T08:54:22.141Z,25.90
2023-05-04T08:55:22.122Z,25.87
2023-05-04T08:56:22.152Z,25.86
2023-05-04T08:57:22.191Z,25.84
2023-05-04T08:58:22.211Z,25.86
2023-05-04T08:59:22.242Z,25.84
2023-05-04T09:00:22.265Z,25.87
2023-05-04T09:01:22.432Z,25.86
2023-05-04T09:02:22.337Z,25.87
2023-05-04T09:03:22.436Z,25.87
2023-05-04T09:04:22.367Z,25.86
2023-05-04T09:05:22.354Z,25.88
2023-05-04T09:06:22.374Z,25.87
2023-05-04T09:07:22.391Z,25.87
2023-05-04T09:08:22.392Z,25.90
2023-05-04T09:09:22.443Z,25.87
2023-05-04T09:10:22.477Z,25.88
2023-05-04T09:11:22.500Z,25.90
2023-05-04T09:12:22.526Z,25.90
2023-05-04T09:13:22.540Z,25.88
2023-05-04T09:14:22.597Z,25.90
2023-05-04T09:15:22.574Z,25.88
2023-05-04T09:16:22.634Z,25.91
2023-05-04T09:17:22.608Z,25.90
2023-05-04T09:18:22.690Z,25.91
2023-05-04T09:19:22.680Z,25.88
2023-05-04T09:20:22.681Z,25.88
2023-05-04T09:21:22.719Z,25.90
2023-05-04T09:22:22.721Z,25.90
2023-05-04T09:23:22.806Z,25.90
2023-05-04T09:24:22.744Z,25.91
2023-05-04T09:25:22.799Z,25.88
2023-05-04T09:26:22.805Z,25.88
2023-05-04T09:27:22.839Z,25.91
2023-05-04T09:28:22.873Z,25.90
2023-05-04T09:29:22.839Z,25.90
2023-05-04T09:30:22.896Z,25.91
2023-05-04T09:31:22.908Z,25.90
2023-05-04T09:32:22.919Z,25.90
2023-05-04T09:33:22.935Z,25.88
2023-05-04T09:34:22.957Z,25.90
2023-05-04T09:35:32.542Z,25.91
2023-05-04T09:36:23.985Z,25.88
2023-05-04T09:37:22.990Z,25.90
2023-05-04T09:38:22.990Z,25.88
2023-05-04T09:39:22.999Z,25.90
2023-05-04T09:40:22.960Z,25.90
2023-05-04T09:41:22.947Z,25.91
2023-05-04T09:42:22.931Z,25.88
2023-05-04T09:43:22.981Z,25.90
2023-05-04T09:44:22.944Z,25.93
2023-05-04T09:45:22.921Z,25.93
2023-05-04T09:46:22.981Z,25.91
2023-05-04T09:47:22.929Z,25.93
2023-05-04T09:48:22.935Z,25.87
2023-05-04T09:49:22.932Z,25.91
2023-05-04T09:50:22.957Z,25.91
2023-05-04T09:51:22.883Z,25.91
2023-05-04T09:52:22.889Z,25.91
2023-05-04T09:53:22.884Z,25.91
2023-05-04T09:54:22.854Z,25.93
2023-05-04T09:55:22.874Z,25.93
2023-05-04T09:56:22.883Z,25.93
2023-05-04T09:57:22.842Z,25.94
2023-05-04T09:58:22.851Z,25.96
2023-05-04T09:59:22.809Z,26.00
2023-05-04T10:00:22.836Z,26.00
2023-05-04T10:01:22.838Z,26.01
2023-05-04T10:02:23.528Z,26.03
2023-05-04T10:03:22.871Z,26.00
2023-05-04T10:04:22.830Z,26.04
2023-05-04T10:05:22.857Z,26.03
2023-05-04T10:06:22.854Z,26.04
2023-05-04T10:07:22.847Z,26.05
2023-05-04T10:08:22.920Z,26.05
2023-05-04T10:09:22.870Z,26.07
2023-05-04T10:10:22.866Z,26.07
2023-05-04T10:11:22.872Z,26.09
2023-05-04T10:12:22.877Z,26.07
2023-05-04T10:13:22.883Z,26.08
2023-05-04T10:14:23.409Z,26.08
2023-05-04T10:15:22.900Z,26.08
2023-05-04T10:16:22.911Z,26.14
2023-05-04T10:17:22.968Z,26.08
2023-05-04T10:18:22.884Z,26.11
2023-05-04T10:19:22.927Z,26.09
2023-05-04T10:20:22.911Z,26.09
2023-05-04T10:21:22.910Z,26.11
2023-05-04T10:22:22.903Z,26.14
2023-05-04T10:23:23.953Z,26.13
2023-05-04T10:24:22.927Z,26.14
2023-05-04T10:25:22.942Z,26.15
2023-05-04T10:26:22.906Z,26.15
2023-05-04T10:27:22.919Z,26.15
2023-05-04T10:28:22.995Z,26.14
2023-05-04T10:29:23.879Z,26.15
2023-05-04T10:30:22.919Z,26.11
2023-05-04T10:31:22.912Z,26.15
2023-05-04T10:32:23.004Z,26.15
2023-05-04T10:33:22.887Z,26.17
2023-05-04T10:34:23.376Z,26.17
2023-05-04T10:35:22.901Z,26.15
2023-05-04T10:36:22.860Z,26.17
2023-05-04T10:37:22.929Z,26.15
2023-05-04T10:38:22.906Z,26.17
2023-05-04T10:39:23.389Z,26.13
2023-05-04T10:40:22.873Z,26.14
2023-05-04T10:41:22.855Z,26.14
2023-05-04T10:42:22.868Z,26.17
2023-05-04T10:43:22.899Z,26.18
2023-05-04T10:44:22.918Z,26.18
2023-05-04T10:45:22.940Z,26.15
2023-05-04T10:46:22.939Z,26.11
2023-05-04T10:47:22.872Z,26.05
2023-05-04T10:48:22.902Z,26.01
2023-05-04T10:49:23.423Z,25.97
2023-05-04T10:50:22.923Z,25.93
2023-05-04T10:51:23.141Z,25.88
2023-05-04T10:52:22.939Z,25.86
2023-05-04T10:53:22.989Z,25.79
2023-05-04T10:54:22.958Z,25.77
2023-05-04T10:55:23.037Z,25.73
2023-05-04T10:56:23.026Z,25.70
2023-05-04T10:57:23.075Z,25.66
2023-05-04T10:58:23.113Z,25.66
2023-05-04T10:59:23.152Z,25.60
2023-05-04T11:00:23.154Z,25.56
2023-05-04T11:01:23.259Z,25.57
2023-05-04T11:02:23.297Z,25.53
2023-05-04T11:03:23.397Z,25.49
2023-05-04T11:04:23.322Z,25.46
2023-05-04T11:05:23.353Z,25.45
2023-05-04T11:06:24.197Z,25.45
2023-05-04T11:07:23.442Z,25.42
2023-05-04T11:08:23.459Z,25.38
2023-05-04T11:09:23.483Z,25.42
2023-05-04T11:10:23.504Z,25.38
2023-05-04T11:11:23.557Z,25.39
2023-05-04T11:12:23.574Z,25.35
2023-05-04T11:13:23.787Z,25.35
2023-05-04T11:14:23.902Z,25.36
2023-05-04T11:15:23.706Z,25.30
2023-05-04T11:16:23.755Z,25.29
2023-05-04T11:17:27.998Z,25.26
2023-05-04T11:18:23.713Z,25.28
2023-05-04T11:19:23.730Z,25.25
2023-05-04T11:20:23.744Z,25.23
2023-05-04T11:21:23.747Z,25.26
2023-05-04T11:22:23.757Z,25.26
2023-05-04T11:23:23.707Z,25.23
2023-05-04T11:24:23.703Z,25.22
2023-05-04T11:25:23.673Z,25.25
2023-05-04T11:26:23.694Z,25.19
2023-05-04T11:27:23.671Z,25.19
2023-05-04T11:28:23.704Z,25.18
2023-05-04T11:29:23.738Z,25.19
2023-05-04T11:30:23.824Z,25.22
2023-05-04T11:31:23.848Z,25.19
2023-05-04T11:32:24.068Z,25.18
2023-05-04T11:33:23.910Z,25.15
2023-05-04T11:34:24.404Z,25.14
2023-05-04T11:35:24.006Z,25.15
2023-05-04T11:36:24.099Z,25.17
2023-05-04T11:37:24.422Z,25.18
2023-05-04T11:38:24.245Z,25.15
2023-05-04T11:39:24.566Z,25.15
2023-05-04T11:40:24.279Z,25.15
2023-05-04T11:41:24.337Z,25.11
2023-05-04T11:42:24.471Z,25.12
2023-05-04T11:43:24.451Z,25.11
2023-05-04T11:44:24.532Z,25.12
2023-05-04T11:45:24.570Z,25.11
2023-05-04T11:46:24.668Z,25.09
2023-05-04T11:47:24.768Z,25.08
2023-05-04T11:48:24.717Z,25.08
2023-05-04T11:49:24.824Z,25.05
2023-05-04T11:50:24.839Z,25.07
2023-05-04T11:51:24.899Z,25.05
2023-05-04T11:52:24.968Z,25.08
2023-05-04T11:53:25.018Z,25.09
2023-05-04T11:54:25.929Z,25.08
2023-05-04T11:55:25.199Z,25.07
2023-05-04T11:56:25.162Z,25.08
2023-05-04T11:57:25.248Z,25.04
2023-05-04T11:58:25.308Z,25.04
2023-05-04T11:59:25.448Z,25.04
2023-05-04T12:00:25.511Z,25.05
2023-05-04T12:01:25.513Z,25.04
2023-05-04T12:02:25.589Z,25.05
2023-05-04T12:03:27.873Z,25.02
2023-05-04T12:04:26.744Z,25.05
2023-05-04T12:05:25.731Z,25.04
2023-05-04T12:06:25.604Z,25.02
2023-05-04T12:07:25.581Z,25.02
2023-05-04T12:08:25.612Z,25.04
2023-05-04T12:09:25.624Z,25.02
2023-05-04T12:10:25.574Z,24.98
2023-05-04T12:11:25.844Z,25.01
2023-05-04T12:12:25.615Z,25.02
2023-05-04T12:13:25.882Z,25.01
2023-05-04T12:14:25.700Z,25.01
2023-05-04T12:15:25.816Z,25.01
2023-05-04T12:16:25.907Z,24.98
2023-05-04T12:17:25.903Z,24.99
2023-05-04T12:18:25.952Z,24.99
2023-05-04T12:19:26.024Z,24.97
2023-05-04T12:20:26.067Z,24.98
2023-05-04T12:21:26.161Z,24.98
2023-05-04T12:22:26.291Z,24.95
2023-05-04T12:23:26.237Z,24.97
2023-05-04T12:24:26.452Z,24.97
2023-05-04T12:25:26.353Z,24.94
2023-05-04T12:26:26.470Z,24.95
2023-05-04T12:27:26.538Z,24.97
2023-05-04T12:28:26.567Z,24.98
2023-05-04T12:29:26.592Z,24.98
2023-05-04T12:30:26.607Z,24.97
2023-05-04T12:31:26.680Z,24.98
2023-05-04T12:32:26.780Z,25.01
2023-05-04T12:33:26.779Z,24.99
2023-05-04T12:34:27.035Z,25.01
2023-05-04T12:35:26.932Z,24.99
2023-05-04T12:36:26.990Z,25.01
2023-05-04T12:37:27.019Z,25.04
2023-05-04T12:38:27.079Z,25.05
2023-05-04T12:39:27.129Z,25.05
2023-05-04T12:40:28.716Z,25.05
2023-05-04T12:41:27.183Z,25.11
2023-05-04T12:42:27.238Z,25.07
2023-05-04T12:43:27.331Z,25.07
2023-05-04T12:44:27.360Z,25.07
2023-05-04T12:45:27.416Z,25.11
2023-05-04T12:46:27.578Z,25.12
2023-05-04T12:47:27.578Z,25.12
2023-05-04T12:48:27.512Z,25.09
2023-05-04T12:49:27.925Z,25.15
2023-05-04T12:50:27.599Z,25.17
2023-05-04T12:51:27.672Z,25.19
2023-05-04T12:52:27.690Z,25.18